createdAt,value
2023-01-19T04:53:47.728Z,70.00
2023-01-19T04:55:55.635Z,76.43
2023-01-19T04:58:00.265Z,73.50
2023-01-19T05:00:22.486Z,77.63
2023-01-19T05:02:26.457Z,61.90
2023-01-19T05:04:30.656Z,72.22
2023-01-19T05:06:33.878Z,78.00
2023-01-19T05:08:36.499Z,83.45
2023-01-19T05:10:39.226Z,60.50
2023-01-19T05:12:42.556Z,67.38
2023-01-19T05:14:45.319Z,70.00
2023-01-19T05:16:48.038Z,65.07
2023-01-19T05:18:50.797Z,57.40
2023-01-19T05:20:53.342Z,70.45
2023-01-19T05:22:55.936Z,67.03
2023-01-19T05:24:58.785Z,66.38
2023-01-19T05:27:01.376Z,72.32
2023-01-19T05:29:04.246Z,75.78
2023-01-19T05:31:06.937Z,79.57
2023-01-19T05:33:09.597Z,80.80
2023-01-19T05:35:13.915Z,77.10
2023-01-19T05:37:17.548Z,73.95
2023-01-19T05:39:21.476Z,85.35
2023-01-19T05:41:24.076Z,76.85
2023-01-19T05:43:27.332Z,85.03
2023-01-19T05:45:31.016Z,84.47
2023-01-19T05:47:35.426Z,84.88
2023-01-19T05:49:58.426Z,80.47
2023-01-19T05:52:04.259Z,99.97
2023-01-19T05:54:10.746Z,93.00
2023-01-19T05:56:14.937Z,106.25
2023-01-19T05:58:19.568Z,116.53
2023-01-19T06:00:24.016Z,101.03
2023-01-19T06:02:30.484Z,121.18
2023-01-19T06:04:34.596Z,115.45
2023-01-19T06:06:38.966Z,122.47
2023-01-19T06:08:43.556Z,122.03
2023-01-19T06:10:47.391Z,119.47
2023-01-19T06:12:51.748Z,137.60
2023-01-19T06:14:55.096Z,128.48
2023-01-19T06:16:59.572Z,128.98
2023-01-19T06:19:04.481Z,141.20
2023-01-19T06:21:11.481Z,125.22
2023-01-19T06:23:15.884Z,115.10
2023-01-19T06:25:20.932Z,131.80
2023-01-19T06:27:26.061Z,131.20
2023-01-19T06:29:30.076Z,136.40
2023-01-19T06:31:35.387Z,139.75
2023-01-19T06:33:46.638Z,123.55
2023-01-19T06:35:53.970Z,125.03
2023-01-19T06:37:59.573Z,136.85
2023-01-19T06:40:04.216Z,136.63
2023-01-19T06:42:08.231Z,130.13
2023-01-19T06:44:12.116Z,127.95
2023-01-19T06:46:17.163Z,114.93
2023-01-19T06:48:21.116Z,102.03
2023-01-19T06:50:25.480Z,109.22
2023-01-19T06:52:30.073Z,108.10
2023-01-19T06:54:33.957Z,108.22
2023-01-19T06:56:37.827Z,102.78
2023-01-19T06:58:43.689Z,128.57
2023-01-19T07:00:48.034Z,121.95
2023-01-19T07:02:53.788Z,124.60
2023-01-19T07:05:03.094Z,127.57
2023-01-19T07:07:07.078Z,115.65
2023-01-19T07:09:16.954Z,120.70
2023-01-19T07:11:24.921Z,123.53
2023-01-19T07:13:36.110Z,129.77
2023-01-19T07:15:40.150Z,149.35
2023-01-19T07:17:44.811Z,137.77
2023-01-19T07:19:49.747Z,133.98
2023-01-19T07:21:54.387Z,135.32
2023-01-19T07:26:27.438Z,135.85
2023-01-19T07:28:33.681Z,125.60
2023-01-19T07:30:39.037Z,144.30
2023-01-19T07:32:44.857Z,146.80
2023-01-19T07:34:51.010Z,135.93
2023-01-19T07:37:02.391Z,107.95
2023-01-19T07:39:07.178Z,104.55
2023-01-19T07:41:13.952Z,114.30
2023-01-19T07:43:19.379Z,116.32
2023-01-19T07:45:24.148Z,109.30
2023-01-19T07:47:42.047Z,104.53
2023-01-19T07:49:58.597Z,104.03
2023-01-19T07:52:03.590Z,102.90
2023-01-19T07:54:11.349Z,91.05
2023-01-19T07:56:16.297Z,88.65
2023-01-19T07:58:38.237Z,72.82
2023-01-19T08:00:42.848Z,75.68
2023-01-19T08:02:46.817Z,78.82
2023-01-19T08:04:50.716Z,69.50
2023-01-19T08:06:55.528Z,76.35
2023-01-19T08:09:00.977Z,69.93
2023-01-19T08:11:04.949Z,70.22
2023-01-19T08:13:09.512Z,73.88
2023-01-19T08:15:14.806Z,75.18
2023-01-19T08:17:21.676Z,83.55
2023-01-19T08:19:26.836Z,76.07
2023-01-19T08:21:31.918Z,83.10
2023-01-19T08:23:36.487Z,68.30
2023-01-19T08:25:54.737Z,72.78
2023-01-19T08:28:00.624Z,76.65
2023-01-19T08:30:05.782Z,84.28
2023-01-19T08:32:11.000Z,71.57
2023-01-19T08:34:15.477Z,65.32
2023-01-19T08:36:20.011Z,64.68
2023-01-19T08:38:28.477Z,76.20
2023-01-19T08:40:38.189Z,61.45
2023-01-19T08:42:42.558Z,65.95
2023-01-19T08:44:57.511Z,59.75
2023-01-19T08:47:03.005Z,62.35
2023-01-19T08:49:06.900Z,61.78
2023-01-19T08:51:11.826Z,58.97
2023-01-19T08:53:16.563Z,57.47
2023-01-19T08:55:21.113Z,52.70
2023-01-19T08:57:26.104Z,57.72
2023-01-19T08:59:31.174Z,62.97
2023-01-19T09:01:36.362Z,51.35
2023-01-19T09:03:41.696Z,56.28
2023-01-19T09:05:46.036Z,62.80
2023-01-19T09:07:50.650Z,54.90
2023-01-19T09:09:54.501Z,62.47
2023-01-19T09:11:58.430Z,55.95
2023-01-19T09:14:03.385Z,54.03
2023-01-19T09:16:10.511Z,65.10
2023-01-19T09:18:23.269Z,56.95
2023-01-19T09:20:27.796Z,70.20
2023-01-19T09:22:32.867Z,59.25
2023-01-19T09:24:36.699Z,67.95
2023-01-19T09:26:42.797Z,59.20
2023-01-19T09:28:46.611Z,66.50
2023-01-19T09:30:50.637Z,64.47
2023-01-19T09:33:08.117Z,82.25
2023-01-19T09:35:14.777Z,68.78
2023-01-19T09:37:19.137Z,62.65
2023-01-19T09:39:23.577Z,78.53
2023-01-19T09:41:27.977Z,82.25
2023-01-19T09:43:45.116Z,81.25
2023-01-19T09:46:00.921Z,80.85
2023-01-19T09:48:10.863Z,84.57
2023-01-19T09:50:49.972Z,82.15
2023-01-19T09:53:19.147Z,81.85
2023-01-19T09:55:28.449Z,83.30
2023-01-19T09:57:34.447Z,86.75
2023-01-19T09:59:38.937Z,88.65
2023-01-19T10:02:14.546Z,90.32
2023-01-19T10:04:33.809Z,112.70
2023-01-19T10:06:38.077Z,84.32
2023-01-19T10:09:08.557Z,67.03
2023-01-19T10:11:52.701Z,66.22
2023-01-19T10:13:58.869Z,75.78
2023-01-19T10:16:24.272Z,88.00
2023-01-19T10:18:37.787Z,84.25
2023-01-19T10:20:52.099Z,76.18
2023-01-19T10:23:03.385Z,79.18
2023-01-19T10:25:19.015Z,71.00
2023-01-19T10:27:30.592Z,77.72
2023-01-19T10:29:39.926Z,79.22
2023-01-19T10:31:47.860Z,68.65
2023-01-19T10:33:57.370Z,70.72
2023-01-19T10:36:01.756Z,68.13
2023-01-19T10:38:07.684Z,68.45
2023-01-19T10:40:14.959Z,63.00
2023-01-19T10:42:21.467Z,75.20
2023-01-19T10:44:31.380Z,68.28
2023-01-19T10:46:45.947Z,66.93
2023-01-19T10:48:57.370Z,71.07
2023-01-19T10:51:08.512Z,70.28
2023-01-19T10:53:28.870Z,67.63
2023-01-19T10:55:39.667Z,68.88
2023-01-19T10:57:44.968Z,75.10
2023-01-19T10:59:53.767Z,81.93
2023-01-19T11:02:20.099Z,96.78
2023-01-19T11:04:33.020Z,81.40
2023-01-19T11:06:37.775Z,88.05
2023-01-19T11:08:43.048Z,81.10
2023-01-19T11:10:56.327Z,62.47
2023-01-19T11:13:38.266Z,62.80
2023-01-19T11:16:00.228Z,67.60
2023-01-19T11:18:31.486Z,69.22
2023-01-19T11:20:49.466Z,62.03
2023-01-19T11:23:16.858Z,70.30
2023-01-19T11:25:29.887Z,75.03
2023-01-19T11:27:38.623Z,79.13
2023-01-19T11:29:48.327Z,71.32
2023-01-19T11:31:53.416Z,73.18
2023-01-19T11:33:59.887Z,75.03
2023-01-19T11:36:09.526Z,72.57
2023-01-19T11:38:24.717Z,62.97
2023-01-19T11:40:29.098Z,61.85
2023-01-19T11:42:40.616Z,73.43
2023-01-19T11:45:00.911Z,65.13
2023-01-19T11:47:07.685Z,71.35
2023-01-19T11:49:24.252Z,66.55
2023-01-19T11:51:36.424Z,67.45
2023-01-19T11:53:41.180Z,60.33
2023-01-19T11:55:54.267Z,74.40
2023-01-19T11:57:58.446Z,62.08
2023-01-19T12:00:26.002Z,67.68
2023-01-19T12:02:34.783Z,68.18
2023-01-19T12:04:44.241Z,68.68
2023-01-19T12:06:58.727Z,55.38
2023-01-19T12:09:12.637Z,62.38
2023-01-19T12:11:33.737Z,70.07
2023-01-19T12:13:38.197Z,64.78
2023-01-19T12:15:46.116Z,60.75
2023-01-19T12:17:54.546Z,82.68
2023-01-19T12:20:29.416Z,70.93
2023-01-19T12:22:38.756Z,57.42
2023-01-19T12:24:54.846Z,64.57
2023-01-19T12:27:01.396Z,58.22
2023-01-19T12:29:17.026Z,58.03
2023-01-19T12:31:26.443Z,212.07
2023-01-19T12:33:48.267Z,187.98
2023-01-19T12:36:27.266Z,146.95
2023-01-19T12:38:46.047Z,95.18
2023-01-19T12:40:50.358Z,106.43
2023-01-19T12:43:08.616Z,121.40
2023-01-19T12:45:27.287Z,146.25
2023-01-19T12:47:33.388Z,68.50
2023-01-19T12:50:16.646Z,92.13
2023-01-19T12:53:01.478Z,73.13
2023-01-19T12:55:28.416Z,87.95
2023-01-19T12:57:35.157Z,142.52
2023-01-19T12:59:41.418Z,147.88
2023-01-19T18:14:49.217Z,311.48
2023-01-19T18:16:52.500Z,325.67
2023-01-19T18:18:58.368Z,325.20
2023-01-19T18:21:04.180Z,296.30
2023-01-19T18:23:10.265Z,305.52
2023-01-19T18:25:17.971Z,298.10
2023-01-19T18:27:24.067Z,301.33
2023-01-19T18:29:29.090Z,298.58
2023-01-19T18:31:33.531Z,302.67
2023-01-19T18:33:37.208Z,281.58
2023-01-19T18:35:45.657Z,298.77
2023-01-19T18:37:50.247Z,294.45
2023-01-19T18:39:56.057Z,281.42
2023-01-19T18:41:59.805Z,291.52
2023-01-19T18:44:12.642Z,307.77
2023-01-19T18:46:19.626Z,294.05
2023-01-19T18:48:26.316Z,316.92
2023-01-19T18:50:31.297Z,294.83
2023-01-19T18:52:36.426Z,282.30
2023-01-19T18:54:40.267Z,310.05
2023-01-19T18:56:45.795Z,292.70
2023-01-19T18:58:50.189Z,322.63
2023-01-19T19:00:55.119Z,293.20
2023-01-19T19:03:01.592Z,301.80
2023-01-19T19:05:06.336Z,296.88
2023-01-19T19:07:12.597Z,298.80
2023-01-19T19:09:17.211Z,299.77
2023-01-19T19:11:23.155Z,280.30
2023-01-19T19:13:27.187Z,294.52
2023-01-19T19:15:30.689Z,310.55
2023-01-19T19:17:37.554Z,336.40
2023-01-19T19:19:41.388Z,282.08
2023-01-19T19:21:45.336Z,302.52
2023-01-19T19:24:06.987Z,289.17
2023-01-19T19:26:15.678Z,308.15
2023-01-19T19:28:22.277Z,336.63
2023-01-19T19:30:26.663Z,306.48
2023-01-19T19:32:31.599Z,309.08
2023-01-19T19:34:35.397Z,350.60
2023-01-19T19:36:39.113Z,335.35
2023-01-19T19:38:45.067Z,358.17
2023-01-19T19:40:48.789Z,353.50
2023-01-19T19:42:52.587Z,284.13
2023-01-19T19:44:56.638Z,276.40
2023-01-19T19:47:00.388Z,254.75
2023-01-19T19:49:05.327Z,248.95
2023-01-19T19:51:18.445Z,279.42
2023-01-19T19:53:23.746Z,273.20
2023-01-19T19:55:27.572Z,245.23
2023-01-19T19:57:31.920Z,239.77
2023-01-19T19:59:36.219Z,256.48
2023-01-19T20:01:40.280Z,238.50
2023-01-19T20:03:45.562Z,249.13
2023-01-19T20:05:49.907Z,238.13
2023-01-19T20:07:54.217Z,229.60
2023-01-19T20:09:57.978Z,259.83
2023-01-19T20:12:07.007Z,250.57
2023-01-19T20:14:30.818Z,246.35
2023-01-19T20:16:37.778Z,243.48
2023-01-19T20:18:46.617Z,230.68
2023-01-19T20:20:50.793Z,280.95
2023-01-19T20:22:56.828Z,272.20
2023-01-19T20:25:04.955Z,258.90
2023-01-19T20:27:07.776Z,272.50
2023-01-19T20:29:11.437Z,274.92
2023-01-19T20:31:24.119Z,274.45
2023-01-19T20:33:33.607Z,258.85
2023-01-19T20:35:40.316Z,275.70
2023-01-19T20:37:44.727Z,282.70
2023-01-19T20:39:48.045Z,292.65
2023-01-19T20:41:51.458Z,272.52
2023-01-19T20:43:54.816Z,266.60
2023-01-19T20:45:58.784Z,272.40
2023-01-19T20:48:01.356Z,255.50
2023-01-19T20:50:06.916Z,238.52
2023-01-19T20:52:09.786Z,247.13
2023-01-19T20:54:15.326Z,233.38
2023-01-19T20:56:18.337Z,214.65
2023-01-19T20:58:21.719Z,232.93
2023-01-19T21:00:25.446Z,239.55
2023-01-19T21:02:30.529Z,233.50
2023-01-19T21:04:33.280Z,219.38
2023-01-19T21:06:36.197Z,221.00
2023-01-19T21:08:44.520Z,223.80
2023-01-19T21:10:47.206Z,231.93
2023-01-19T21:12:49.817Z,233.48
2023-01-19T21:14:52.505Z,229.35
2023-01-19T21:16:58.604Z,237.43
2023-01-19T21:19:01.497Z,219.75
2023-01-19T21:21:04.104Z,220.60
2023-01-19T21:23:06.324Z,235.68
2023-01-19T21:25:09.555Z,248.07
2023-01-19T21:27:12.555Z,254.82
2023-01-19T21:29:14.999Z,248.98
2023-01-19T21:31:17.844Z,266.13
2023-01-19T21:33:21.422Z,243.75
2023-01-19T21:35:23.765Z,246.05
2023-01-19T21:37:26.415Z,244.73
2023-01-19T21:39:29.295Z,240.07
2023-01-19T21:41:34.708Z,211.60
2023-01-19T21:43:39.460Z,229.57
2023-01-19T21:45:43.185Z,215.55
2023-01-19T21:47:45.787Z,216.90
2023-01-19T21:49:48.743Z,193.43
2023-01-19T21:51:51.912Z,192.13
2023-01-19T21:53:59.913Z,195.27
2023-01-19T21:56:02.998Z,185.93
2023-01-19T21:58:06.160Z,172.63
2023-01-19T22:00:10.658Z,179.85
2023-01-19T22:02:14.427Z,181.95
2023-01-19T22:04:17.759Z,177.35
2023-01-19T22:06:20.540Z,173.13
2023-01-19T22:08:24.567Z,166.40
2023-01-19T22:10:27.126Z,166.77
2023-01-19T22:12:29.721Z,163.70
2023-01-19T22:14:32.475Z,143.35
2023-01-19T22:16:35.370Z,134.20
2023-01-19T22:18:39.672Z,124.63
2023-01-19T22:20:42.380Z,115.47
2023-01-19T22:22:45.191Z,116.97
2023-01-19T22:24:51.225Z,107.55
2023-01-19T22:26:53.748Z,115.47
2023-01-19T22:29:01.196Z,120.63
2023-01-19T22:31:12.924Z,110.18
2023-01-19T22:33:16.525Z,105.85
2023-01-19T22:35:19.523Z,97.75
2023-01-19T22:37:22.394Z,96.65
2023-01-19T22:39:24.774Z,87.60
